Time;durP1;ratioP1;P1;durP2;ratioP2;P2;SDS_P1;SDS_P2;PMS_P1;PMS_P2;Temp;Humidity;BMP_temperature;BMP_pressure;BME280_temperature;BME280_humidity;BME280_pressure;Samples;Min_cycle;Max_cycle;Signal;HPM_P1;HPM_P2
2022/03/25 00:00:47;;;;;;;53.17;21.00;;;;;;;;;;12013080;28;20120;-78
2022/03/25 00:06:35;;;;;;;54.17;20.85;;;;;;;;;;12015057;28;20068;-75
2022/03/25 00:12:23;;;;;;;54.95;20.48;;;;;;;;;;12013266;28;20045;-77
2022/03/25 00:18:11;;;;;;;53.08;21.90;;;;;;;;;;12012041;28;20404;-76
2022/03/25 00:23:58;;;;;;;57.63;21.23;;;;;;;;;;12015900;28;20055;-76
2022/03/25 00:29:46;;;;;;;53.10;22.48;;;;;;;;;;12013306;28;20049;-76
2022/03/25 00:35:34;;;;;;;53.42;22.08;;;;;;;;;;12011138;28;20496;-75
2022/03/25 00:41:23;;;;;;;54.05;22.38;;;;;;;;;;12008447;28;20040;-75
2022/03/25 00:47:12;;;;;;;55.45;23.08;;;;;;;;;;12013270;28;20076;-75
2022/03/25 00:52:59;;;;;;;58.08;22.50;;;;;;;;;;12011160;28;20041;-75
2022/03/25 00:58:46;;;;;;;52.38;21.98;;;;;;;;;;12009790;28;20041;-76
2022/03/25 01:04:35;;;;;;;58.85;22.67;;;;;;;;;;12014488;28;20713;-76
2022/03/25 01:10:23;;;;;;;61.35;22.25;;;;;;;;;;12013187;28;20048;-76
2022/03/25 01:16:10;;;;;;;67.60;22.92;;;;;;;;;;12013325;28;20555;-75
2022/03/25 01:21:58;;;;;;;60.15;23.13;;;;;;;;;;12016572;28;20048;-76
2022/03/25 01:27:46;;;;;;;53.45;21.65;;;;;;;;;;12013957;28;20049;-76
2022/03/25 01:33:33;;;;;;;51.80;20.40;;;;;;;;;;12014055;28;20056;-76
2022/03/25 01:39:21;;;;;;;54.85;22.67;;;;;;;;;;12014045;28;20110;-76
2022/03/25 01:45:09;;;;;;;56.70;21.85;;;;;;;;;;12015043;28;20083;-76
2022/03/25 01:50:56;;;;;;;58.15;22.73;;;;;;;;;;12012370;28;20052;-76
2022/03/25 01:56:45;;;;;;;63.42;24.60;;;;;;;;;;12013960;28;20079;-76
2022/03/25 02:02:32;;;;;;;58.10;23.40;;;;;;;;;;12011350;28;20053;-75
2022/03/25 02:08:20;;;;;;;58.97;23.08;;;;;;;;;;12013100;28;20049;-76
2022/03/25 02:14:08;;;;;;;64.47;23.20;;;;;;;;;;12010991;28;20404;-75
2022/03/25 02:19:56;;;;;;;61.13;22.40;;;;;;;;;;12013225;28;20045;-76
2022/03/25 02:25:44;;;;;;;58.67;22.65;;;;;;;;;;12016541;28;20191;-76
2022/03/25 02:31:32;;;;;;;54.58;22.48;;;;;;;;;;12021079;28;20097;-76
2022/03/25 02:37:19;;;;;;;55.63;22.25;;;;;;;;;;12022325;28;20049;-76
2022/03/25 02:43:08;;;;;;;60.65;23.70;;;;;;;;;;12021357;28;20533;-76
2022/03/25 02:48:56;;;;;;;61.95;22.13;;;;;;;;;;12020882;28;20056;-75
2022/03/25 02:54:43;;;;;;;59.28;22.38;;;;;;;;;;12017550;28;20484;-76
2022/03/25 03:00:31;;;;;;;60.75;23.20;;;;;;;;;;12019365;28;20253;-75
2022/03/25 03:06:19;;;;;;;59.08;22.73;;;;;;;;;;12016001;28;20045;-75
2022/03/25 03:12:06;;;;;;;53.22;22.20;;;;;;;;;;12019449;28;20049;-75
2022/03/25 03:17:55;;;;;;;62.28;22.55;;;;;;;;;;12018992;28;20518;-75
2022/03/25 03:23:42;;;;;;;56.35;21.52;;;;;;;;;;12018948;28;20036;-75
2022/03/25 03:29:30;;;;;;;52.13;22.02;;;;;;;;;;12017776;28;20046;-75
2022/03/25 03:35:19;;;;;;;58.38;22.63;;;;;;;;;;12017768;28;20052;-75
2022/03/25 03:41:06;;;;;;;61.33;21.70;;;;;;;;;;12018799;28;20041;-75
2022/03/25 03:46:53;;;;;;;56.65;22.88;;;;;;;;;;12017175;28;20057;-75
2022/03/25 03:52:43;;;;;;;51.20;21.45;;;;;;;;;;12019385;28;20044;-75
2022/03/25 03:58:30;;;;;;;56.38;23.15;;;;;;;;;;12016304;28;20042;-75
2022/03/25 04:04:18;;;;;;;58.47;23.75;;;;;;;;;;12016835;28;20049;-75
2022/03/25 04:10:06;;;;;;;62.08;23.52;;;;;;;;;;12017561;28;20476;-77
2022/03/25 04:15:54;;;;;;;65.97;23.88;;;;;;;;;;12017465;28;20064;-76
2022/03/25 04:21:41;;;;;;;61.10;23.48;;;;;;;;;;12014000;28;20060;-76
2022/03/25 04:27:31;;;;;;;64.13;23.67;;;;;;;;;;12016601;28;20060;-75
2022/03/25 04:33:18;;;;;;;54.05;22.30;;;;;;;;;;12017537;28;20041;-75
2022/03/25 04:39:05;;;;;;;59.25;23.00;;;;;;;;;;12016989;28;20064;-75
2022/03/25 04:44:54;;;;;;;52.97;23.17;;;;;;;;;;12016922;28;20060;-76
2022/03/25 04:50:41;;;;;;;72.35;24.52;;;;;;;;;;12015645;28;20409;-77
2022/03/25 04:56:28;;;;;;;60.58;23.27;;;;;;;;;;12015321;28;20098;-75
2022/03/25 05:02:17;;;;;;;69.40;24.00;;;;;;;;;;12015440;28;20052;-76
2022/03/25 05:08:05;;;;;;;61.00;24.13;;;;;;;;;;12012976;28;20500;-76
2022/03/25 05:13:52;;;;;;;62.05;23.40;;;;;;;;;;12016506;28;20060;-76
2022/03/25 05:19:42;;;;;;;82.55;41.25;;;;;;;;;;12013690;28;20515;-76
2022/03/25 05:25:29;;;;;;;174.45;65.78;;;;;;;;;;12013744;28;20148;-77
2022/03/25 05:31:16;;;;;;;289.52;82.00;;;;;;;;;;12014831;28;20316;-77
2022/03/25 05:37:05;;;;;;;375.80;88.93;;;;;;;;;;12014680;28;20049;-77
2022/03/25 05:42:53;;;;;;;373.27;89.72;;;;;;;;;;12016447;28;20052;-77
2022/03/25 05:48:40;;;;;;;364.48;87.47;;;;;;;;;;12015645;28;20488;-77
2022/03/25 11:39:22;;;;;;;101.63;71.15;;;;;;;;;;12072900;27;20438;-76
2022/03/25 11:45:33;;;;;;;73.30;35.08;;;;;;;;;;12446102;22;20044;-76
2022/03/25 11:51:30;;;;;;;76.97;33.42;;;;;;;;;;12005815;28;20096;-75
2022/03/25 11:57:24;;;;;;;75.05;32.95;;;;;;;;;;12007706;28;20049;-74
2022/03/25 12:03:13;;;;;;;70.20;34.33;;;;;;;;;;12007091;28;20483;-75
2022/03/25 12:09:02;;;;;;;81.35;34.38;;;;;;;;;;12008273;28;20049;-74
2022/03/25 12:15:10;;;;;;;72.30;32.80;;;;;;;;;;12006698;28;20053;-74
2022/03/25 12:20:57;;;;;;;67.65;31.63;;;;;;;;;;12006533;28;20049;-74
2022/03/25 12:26:44;;;;;;;74.22;35.53;;;;;;;;;;12005864;28;20052;-74
2022/03/25 12:32:35;;;;;;;77.15;33.90;;;;;;;;;;12005578;28;20053;-73
2022/03/25 12:38:24;;;;;;;74.70;35.33;;;;;;;;;;12007240;28;20045;-74
2022/03/25 12:44:11;;;;;;;82.45;34.72;;;;;;;;;;12006260;28;20073;-75
2022/03/25 12:50:00;;;;;;;78.32;36.47;;;;;;;;;;11973275;28;20048;-74
2022/03/25 12:55:47;;;;;;;72.00;34.15;;;;;;;;;;11971399;28;20050;-75
2022/03/25 13:01:35;;;;;;;74.55;36.17;;;;;;;;;;11971287;28;20041;-75
2022/03/25 13:07:23;;;;;;;71.78;33.65;;;;;;;;;;11969476;28;20052;-75
2022/03/25 13:13:11;;;;;;;68.40;33.55;;;;;;;;;;11965735;28;20611;-74
2022/03/25 13:18:58;;;;;;;82.82;35.00;;;;;;;;;;11972913;28;20493;-75
2022/03/25 13:24:56;;;;;;;76.50;34.22;;;;;;;;;;11970036;28;20095;-75
2022/03/25 13:30:44;;;;;;;67.13;32.22;;;;;;;;;;11969429;28;20500;-76
2022/03/25 13:36:35;;;;;;;80.18;35.47;;;;;;;;;;11970746;28;20069;-75
2022/03/25 13:42:32;;;;;;;68.80;35.15;;;;;;;;;;11970682;28;20111;-76
2022/03/25 13:48:19;;;;;;;74.05;35.47;;;;;;;;;;11971852;28;21957;-74
2022/03/25 13:54:07;;;;;;;69.28;34.33;;;;;;;;;;11971838;28;20058;-76
2022/03/25 14:00:08;;;;;;;81.80;35.55;;;;;;;;;;11970618;28;20136;-75
2022/03/25 14:05:55;;;;;;;67.93;33.83;;;;;;;;;;11969745;28;20045;-74
2022/03/25 14:11:43;;;;;;;75.15;31.27;;;;;;;;;;11970049;28;20053;-77
2022/03/25 14:17:32;;;;;;;73.20;35.33;;;;;;;;;;11968814;28;20045;-76
2022/03/25 14:23:20;;;;;;;61.25;30.00;;;;;;;;;;11968138;28;20048;-77
2022/03/25 14:29:08;;;;;;;67.70;30.80;;;;;;;;;;11970607;28;20049;-75
2022/03/25 14:34:56;;;;;;;62.20;31.40;;;;;;;;;;11990415;28;20471;-75
2022/03/25 14:40:43;;;;;;;57.60;28.70;;;;;;;;;;11979870;28;20072;-76
2022/03/25 14:46:31;;;;;;;62.75;29.58;;;;;;;;;;11966980;28;20392;-76
2022/03/25 14:52:20;;;;;;;60.05;29.35;;;;;;;;;;11964897;28;20053;-76
2022/03/25 14:58:07;;;;;;;60.33;28.05;;;;;;;;;;11969101;28;20049;-76
2022/03/25 15:03:54;;;;;;;56.08;26.52;;;;;;;;;;11964265;28;20068;-76
2022/03/25 15:09:42;;;;;;;58.03;28.20;;;;;;;;;;11969011;28;20049;-79
2022/03/25 15:15:31;;;;;;;64.85;28.92;;;;;;;;;;11968280;28;20140;-77
2022/03/25 15:21:19;;;;;;;54.50;27.60;;;;;;;;;;11970193;28;20075;-80
2022/03/25 15:27:07;;;;;;;56.38;29.60;;;;;;;;;;11970415;28;20045;-80
2022/03/25 15:38:59;;;;;;;59.72;29.90;;;;;;;;;;11977872;28;20071;-78
2022/03/25 15:44:48;;;;;;;64.00;28.77;;;;;;;;;;11993995;28;20053;-80
2022/03/25 15:50:35;;;;;;;61.40;29.80;;;;;;;;;;11967747;28;20406;-77
2022/03/25 15:56:23;;;;;;;68.60;32.70;;;;;;;;;;11965728;28;20179;-78
2022/03/25 16:02:11;;;;;;;67.75;33.35;;;;;;;;;;11965247;28;20057;-81
2022/03/25 16:07:58;;;;;;;68.60;33.22;;;;;;;;;;11967389;28;20555;-77
2022/03/25 16:13:46;;;;;;;65.97;31.48;;;;;;;;;;11963489;28;20435;-79
2022/03/25 16:19:34;;;;;;;75.60;34.88;;;;;;;;;;11965894;28;20392;-77
2022/03/25 16:25:22;;;;;;;72.40;34.78;;;;;;;;;;11971937;28;20045;-77
2022/03/25 16:31:09;;;;;;;73.40;33.58;;;;;;;;;;11971654;28;20068;-77
2022/03/25 16:36:59;;;;;;;71.68;35.92;;;;;;;;;;11974693;28;20053;-78
2022/03/25 16:42:47;;;;;;;66.35;32.95;;;;;;;;;;11977934;28;20069;-79
2022/03/25 16:48:36;;;;;;;72.80;34.92;;;;;;;;;;11978020;28;20052;-77
2022/03/25 16:54:25;;;;;;;67.47;35.85;;;;;;;;;;11974351;28;20060;-79
2022/03/25 17:00:14;;;;;;;74.78;38.97;;;;;;;;;;11972385;28;20045;-82
2022/03/25 17:06:01;;;;;;;75.75;39.00;;;;;;;;;;11969755;28;20038;-76
2022/03/25 17:11:50;;;;;;;77.43;40.45;;;;;;;;;;11972205;28;20067;-79
2022/03/25 17:17:38;;;;;;;75.72;39.78;;;;;;;;;;11970736;28;20052;-79
2022/03/25 17:23:25;;;;;;;87.03;42.90;;;;;;;;;;11969984;28;20453;-81
2022/03/25 17:29:14;;;;;;;73.05;37.40;;;;;;;;;;11968600;28;20049;-77
2022/03/25 17:35:01;;;;;;;78.30;38.33;;;;;;;;;;11968626;28;20082;-77
2022/03/25 17:40:48;;;;;;;76.00;37.17;;;;;;;;;;11967519;28;20069;-76
2022/03/25 17:46:37;;;;;;;84.65;35.15;;;;;;;;;;11969785;28;20049;-77
2022/03/25 17:52:24;;;;;;;81.65;35.67;;;;;;;;;;11966983;28;20446;-77
2022/03/25 17:58:12;;;;;;;77.43;33.05;;;;;;;;;;11958186;28;20211;-77
2022/03/25 18:04:03;;;;;;;75.00;33.17;;;;;;;;;;11961158;28;20377;-76
2022/03/25 18:09:51;;;;;;;64.40;29.30;;;;;;;;;;11966993;28;20121;-78
2022/03/25 18:15:39;;;;;;;186.27;65.07;;;;;;;;;;11948153;28;20061;-76
2022/03/25 18:21:28;;;;;;;67.28;30.55;;;;;;;;;;11965257;28;20489;-77
2022/03/25 18:27:15;;;;;;;61.63;28.95;;;;;;;;;;11960605;28;20164;-76
2022/03/25 18:33:03;;;;;;;61.05;28.60;;;;;;;;;;11960769;28;20455;-76
2022/03/25 18:38:53;;;;;;;63.85;29.55;;;;;;;;;;11963329;28;20920;-76
2022/03/25 18:44:40;;;;;;;67.45;27.15;;;;;;;;;;11959789;28;20052;-76
2022/03/25 18:50:28;;;;;;;62.20;26.85;;;;;;;;;;11958803;28;20412;-76
2022/03/25 18:56:16;;;;;;;59.30;25.10;;;;;;;;;;11959311;28;20046;-77
2022/03/25 19:02:09;;;;;;;64.43;25.48;;;;;;;;;;11959008;28;20595;-79
2022/03/25 19:07:59;;;;;;;56.63;24.50;;;;;;;;;;11907320;28;20050;-76
2022/03/25 19:13:47;;;;;;;56.38;24.50;;;;;;;;;;11911023;28;20132;-77
2022/03/25 19:19:34;;;;;;;56.95;21.60;;;;;;;;;;11912435;28;20050;-76
2022/03/25 19:25:22;;;;;;;59.15;22.10;;;;;;;;;;11910980;28;20046;-76
2022/03/25 19:31:11;;;;;;;58.95;20.83;;;;;;;;;;11914215;28;20049;-78
2022/03/25 19:36:58;;;;;;;47.45;19.95;;;;;;;;;;11911994;28;20042;-77
2022/03/25 19:42:46;;;;;;;49.15;19.73;;;;;;;;;;11921091;28;20054;-81
2022/03/25 19:48:38;;;;;;;46.28;17.90;;;;;;;;;;11936584;28;20073;-81
2022/03/25 19:54:25;;;;;;;44.90;17.17;;;;;;;;;;11929348;28;20045;-81
2022/03/25 20:00:13;;;;;;;47.00;17.13;;;;;;;;;;11939462;28;20095;-85
2022/03/25 20:06:01;;;;;;;52.60;17.48;;;;;;;;;;11943073;28;20060;-82
2022/03/25 20:11:49;;;;;;;43.13;17.88;;;;;;;;;;11940040;28;20045;-83
2022/03/25 20:17:36;;;;;;;37.95;16.52;;;;;;;;;;11946671;28;20359;-84
2022/03/25 20:23:25;;;;;;;43.13;15.73;;;;;;;;;;11945516;28;20053;-85
2022/03/25 20:29:12;;;;;;;51.08;17.80;;;;;;;;;;11938059;28;20413;-79
2022/03/25 20:35:03;;;;;;;43.38;15.60;;;;;;;;;;11934199;28;20050;-83
2022/03/25 20:40:52;;;;;;;41.42;15.38;;;;;;;;;;11945341;28;20042;-82
2022/03/25 20:46:40;;;;;;;40.85;15.52;;;;;;;;;;11942534;28;20200;-81
2022/03/25 20:52:28;;;;;;;43.78;15.70;;;;;;;;;;11941483;28;20052;-84
2022/03/25 20:58:16;;;;;;;39.92;16.20;;;;;;;;;;11937586;28;20499;-84
2022/03/25 21:04:04;;;;;;;44.83;17.83;;;;;;;;;;11935967;28;20079;-84
2022/03/25 21:09:51;;;;;;;45.15;17.55;;;;;;;;;;11932389;28;20053;-83
2022/03/25 21:15:41;;;;;;;50.75;19.70;;;;;;;;;;11933995;28;20045;-82
2022/03/25 21:21:28;;;;;;;46.55;20.25;;;;;;;;;;11931320;28;20487;-81
2022/03/25 21:27:15;;;;;;;46.55;19.95;;;;;;;;;;11928701;28;20158;-81
2022/03/25 21:33:04;;;;;;;59.28;21.65;;;;;;;;;;11942879;28;20046;-80
2022/03/25 21:38:52;;;;;;;58.22;23.02;;;;;;;;;;11945319;28;20042;-81
2022/03/25 21:44:39;;;;;;;51.20;21.60;;;;;;;;;;11926799;28;20155;-80
2022/03/25 21:50:28;;;;;;;50.83;21.23;;;;;;;;;;11929586;28;20049;-79
2022/03/25 21:56:15;;;;;;;52.45;21.45;;;;;;;;;;11923071;28;20057;-78
2022/03/25 22:02:03;;;;;;;62.72;21.92;;;;;;;;;;11921200;28;20050;-77
2022/03/25 22:07:52;;;;;;;59.72;21.30;;;;;;;;;;11923518;28;20052;-76
2022/03/25 22:13:39;;;;;;;56.65;22.23;;;;;;;;;;11921056;28;20046;-78
2022/03/25 22:19:26;;;;;;;52.88;21.88;;;;;;;;;;11921975;28;20140;-75
2022/03/25 22:25:15;;;;;;;50.95;21.70;;;;;;;;;;11919003;28;20075;-77
2022/03/25 22:31:02;;;;;;;51.97;20.98;;;;;;;;;;11920748;28;20473;-77
2022/03/25 22:36:49;;;;;;;56.45;21.42;;;;;;;;;;11919173;28;20121;-78
2022/03/25 22:42:38;;;;;;;66.85;22.80;;;;;;;;;;11918344;28;20053;-77
2022/03/25 22:48:25;;;;;;;56.42;21.23;;;;;;;;;;11920937;28;20052;-77
2022/03/25 22:54:12;;;;;;;51.97;20.92;;;;;;;;;;11918117;28;20053;-78
2022/03/25 23:00:01;;;;;;;55.47;21.92;;;;;;;;;;11918039;28;20049;-77
2022/03/25 23:05:48;;;;;;;54.05;21.38;;;;;;;;;;11916718;28;20785;-78
2022/03/25 23:11:36;;;;;;;52.42;21.35;;;;;;;;;;11920424;28;20064;-79
2022/03/25 23:17:24;;;;;;;56.03;22.00;;;;;;;;;;11918463;28;20053;-79
2022/03/25 23:23:12;;;;;;;53.28;21.35;;;;;;;;;;11920073;28;20050;-79
2022/03/25 23:28:59;;;;;;;58.80;22.25;;;;;;;;;;11925311;28;20123;-78
2022/03/25 23:34:50;;;;;;;61.28;20.98;;;;;;;;;;11924742;28;20063;-79
2022/03/25 23:40:37;;;;;;;51.00;21.70;;;;;;;;;;11920122;28;20054;-77
2022/03/25 23:46:24;;;;;;;65.10;21.45;;;;;;;;;;11920882;28;20053;-78
2022/03/25 23:52:13;;;;;;;63.58;22.60;;;;;;;;;;11917523;28;20701;-78
2022/03/25 23:58:00;;;;;;;63.92;22.52;;;;;;;;;;11919251;28;20472;-78
